Time;durP1;ratioP1;P1;durP2;ratioP2;P2;SDS_P1;SDS_P2;PMS_P1;PMS_P2;Temp;Humidity;BMP_temperature;BMP_pressure;BME280_temperature;BME280_humidity;BME280_pressure;Samples;Min_cycle;Max_cycle;Signal;HPM_P1;HPM_P2
2022/10/10 00:01:22;;;;;;;6.70;3.90;;;11.60;99.90;;;11.97;nan;100710.66;4967559;28;20675;-65
2022/10/10 00:03:49;;;;;;;4.50;3.03;;;11.60;99.90;;;12.00;nan;100713.00;4991144;28;20623;-65
2022/10/10 00:06:16;;;;;;;3.50;2.93;;;11.60;99.90;;;11.84;nan;100709.91;4974016;28;20629;-64
2022/10/10 00:08:44;;;;;;;3.67;2.67;;;11.50;99.90;;;11.76;nan;100710.47;4991268;28;21004;-65
2022/10/10 00:11:14;;;;;;;3.03;2.50;;;11.40;99.90;;;11.67;nan;100712.00;4992178;28;20746;-64
2022/10/10 00:13:41;;;;;;;3.97;2.87;;;11.40;99.90;;;11.58;nan;100711.84;4974061;28;20615;-65
2022/10/10 00:16:09;;;;;;;4.87;2.90;;;11.30;99.90;;;11.47;nan;100709.19;4991406;28;20647;-65
2022/10/10 00:18:37;;;;;;;4.00;3.57;;;11.20;99.90;;;11.41;nan;100709.66;4991135;28;20635;-65
2022/10/10 00:21:05;;;;;;;10.30;3.00;;;11.20;99.90;;;11.39;nan;100701.91;4991050;28;20665;-65
2022/10/10 00:23:32;;;;;;;4.27;3.50;;;11.10;99.90;;;11.40;nan;100706.19;4988885;28;20626;-66
2022/10/10 00:25:59;;;;;;;7.20;3.77;;;11.10;99.90;;;11.47;nan;100711.81;4981140;28;20665;-63
2022/10/10 00:28:27;;;;;;;4.30;3.83;;;11.10;99.90;;;11.50;nan;100711.56;4973973;28;20692;-65
2022/10/10 00:30:54;;;;;;;3.60;3.30;;;11.10;99.90;;;11.43;nan;100718.22;4990753;28;20653;-65
2022/10/10 00:33:21;;;;;;;3.77;2.67;;;11.10;99.90;;;11.33;nan;100712.00;4973747;28;20639;-64
2022/10/10 00:35:48;;;;;;;3.13;2.93;;;11.10;99.90;;;11.29;nan;100719.22;4990577;28;20643;-63
2022/10/10 00:38:15;;;;;;;4.57;3.10;;;11.00;99.90;;;11.38;nan;100713.31;4955246;28;21014;-64
2022/10/10 00:40:53;;;;;;;4.13;3.80;;;11.00;99.90;;;11.29;nan;100713.16;4990027;28;20692;-63
2022/10/10 00:43:22;;;;;;;6.00;4.10;;;11.00;99.90;;;11.29;nan;100715.75;4972701;28;21196;-63
2022/10/10 00:45:49;;;;;;;5.57;4.13;;;10.90;99.90;;;11.21;nan;100713.72;4993501;28;20646;-63
2022/10/10 00:48:41;;;;;;;4.80;3.47;;;10.90;99.90;;;11.22;nan;100710.16;4975166;28;20637;-64
2022/10/10 00:51:14;;;;;;;6.57;4.13;;;10.90;99.90;;;11.29;nan;100719.22;4973368;28;20705;-63
2022/10/10 00:53:58;;;;;;;7.43;3.90;;;10.90;99.90;;;11.24;nan;100712.66;4972271;28;20661;-64
2022/10/10 00:56:31;;;;;;;4.70;4.03;;;10.90;99.90;;;11.27;nan;100707.19;4985527;28;20622;-64
2022/10/10 00:59:03;;;;;;;4.33;3.77;;;10.90;99.90;;;11.15;nan;100700.28;4961268;28;20634;-63
2022/10/10 01:01:31;;;;;;;7.83;3.37;;;10.90;99.90;;;11.16;nan;100696.72;4990062;28;21025;-63
2022/10/10 01:04:00;;;;;;;5.20;3.13;;;10.90;99.90;;;11.22;nan;100701.50;4945777;28;20642;-63
2022/10/10 01:06:28;;;;;;;3.23;3.03;;;10.90;99.90;;;11.26;nan;100698.56;4976399;28;20619;-63
2022/10/10 01:08:55;;;;;;;4.03;3.60;;;10.90;99.90;;;11.26;nan;100702.94;4975578;28;20647;-63
2022/10/10 01:12:16;;;;;;;3.93;3.30;;;10.90;99.90;;;11.27;nan;100702.81;4995136;28;20661;-64
2022/10/10 01:15:12;;;;;;;3.60;2.20;;;10.90;99.90;;;11.23;nan;100692.69;4980643;28;20659;-63
2022/10/10 01:18:09;;;;;;;4.87;3.07;;;10.80;99.90;;;11.14;nan;100693.41;4993324;28;20622;-63
2022/10/10 01:21:15;;;;;;;4.93;3.13;;;10.80;99.90;;;11.07;nan;100694.78;4995340;28;20927;-63
2022/10/10 01:24:03;;;;;;;2.80;2.53;;;10.70;99.90;;;11.01;nan;100700.47;4982078;28;20646;-65
2022/10/10 01:27:09;;;;;;;4.83;3.13;;;10.70;99.90;;;10.99;nan;100704.97;4993692;28;20637;-64
2022/10/10 01:29:56;;;;;;;4.73;2.80;;;10.70;99.90;;;10.96;nan;100695.56;4983852;28;20646;-64
2022/10/10 01:32:52;;;;;;;3.67;2.90;;;10.70;99.90;;;10.97;nan;100699.81;4977542;28;21259;-64
2022/10/10 01:35:52;;;;;;;2.70;2.50;;;10.60;99.90;;;10.99;nan;100691.91;4993413;28;20641;-65
2022/10/10 01:38:40;;;;;;;3.50;3.20;;;10.60;99.90;;;10.87;nan;100691.84;4974802;28;20633;-65
2022/10/10 01:41:28;;;;;;;3.90;3.00;;;10.60;99.90;;;11.00;nan;100693.56;4973577;28;20677;-65
2022/10/10 01:43:57;;;;;;;3.67;3.30;;;10.60;99.90;;;10.90;nan;100686.38;4974837;28;20642;-65
2022/10/10 01:46:25;;;;;;;2.43;2.23;;;10.60;99.90;;;10.89;nan;100699.56;4993656;28;20688;-65
2022/10/10 01:48:55;;;;;;;6.30;3.80;;;10.60;99.90;;;10.92;nan;100684.50;4993095;28;20642;-65
2022/10/10 01:51:37;;;;;;;7.33;3.47;;;10.50;99.90;;;10.85;nan;100683.28;4975006;28;20666;-66
2022/10/10 01:54:32;;;;;;;5.10;3.30;;;10.50;99.90;;;10.72;nan;100686.88;4992262;28;20650;-65
2022/10/10 01:57:12;;;;;;;11.60;4.60;;;10.50;99.90;;;10.79;nan;100683.75;4992936;28;20652;-66
2022/10/10 02:00:10;;;;;;;5.63;4.70;;;10.50;99.90;;;10.87;nan;100683.16;4991816;28;20634;-65
2022/10/10 02:02:58;;;;;;;5.00;3.77;;;10.50;99.90;;;10.80;nan;100685.38;4993131;28;21035;-65
2022/10/10 02:05:39;;;;;;;4.57;3.97;;;10.40;99.90;;;10.78;nan;100687.28;4987471;28;20667;-64
2022/10/10 02:08:09;;;;;;;3.83;3.23;;;10.40;99.90;;;10.70;nan;100688.75;4983758;28;20633;-64
2022/10/10 02:10:51;;;;;;;10.73;3.40;;;10.40;99.90;;;10.78;nan;100682.06;4975347;28;20622;-65
2022/10/10 02:13:21;;;;;;;3.70;3.30;;;10.40;99.90;;;10.85;nan;100675.47;4976336;28;20626;-65
2022/10/10 02:15:53;;;;;;;4.60;3.60;;;10.40;99.90;;;10.91;nan;100671.56;4967903;28;20684;-64
2022/10/10 02:18:24;;;;;;;5.00;3.30;;;10.50;99.90;;;10.92;nan;100671.44;4976116;28;20629;-64
2022/10/10 02:20:52;;;;;;;5.53;3.70;;;10.50;99.90;;;10.93;nan;100674.88;4975323;28;21088;-65
2022/10/10 02:23:21;;;;;;;4.77;3.77;;;10.50;99.90;;;10.94;nan;100666.13;4975964;28;20623;-65
2022/10/10 02:25:54;;;;;;;4.30;3.47;;;10.50;99.90;;;10.83;nan;100672.13;4975688;28;20648;-66
2022/10/10 02:28:30;;;;;;;3.53;3.23;;;10.50;99.90;;;10.76;nan;100665.69;4975070;28;20652;-64
2022/10/10 02:31:02;;;;;;;4.83;3.83;;;10.40;99.90;;;10.82;nan;100667.84;4976061;28;20692;-64
2022/10/10 02:33:45;;;;;;;4.40;3.10;;;10.50;99.90;;;10.75;nan;100677.03;4976935;28;20638;-64
2022/10/10 02:36:15;;;;;;;12.20;3.23;;;10.40;99.90;;;10.77;nan;100666.50;4993041;28;20617;-65
2022/10/10 02:38:42;;;;;;;3.43;3.13;;;10.40;99.90;;;10.84;nan;100671.16;4975660;28;20641;-64
2022/10/10 02:41:14;;;;;;;5.50;4.13;;;10.40;99.90;;;10.85;nan;100669.41;4976220;28;20672;-64
2022/10/10 02:43:41;;;;;;;4.10;3.70;;;10.40;99.90;;;10.81;nan;100665.34;4975080;28;20626;-64
2022/10/10 02:46:12;;;;;;;3.43;3.13;;;10.40;99.90;;;10.86;nan;100664.06;4973608;28;21096;-65
2022/10/10 02:48:39;;;;;;;4.57;3.63;;;10.40;99.90;;;10.88;nan;100662.16;4974467;28;21195;-65
2022/10/10 02:51:07;;;;;;;4.80;3.23;;;10.40;99.90;;;10.80;nan;100659.28;4990851;28;21346;-65
2022/10/10 02:53:36;;;;;;;4.80;3.80;;;10.40;99.90;;;10.71;nan;100666.97;4975446;28;20638;-66
2022/10/10 02:56:04;;;;;;;3.93;3.50;;;10.40;99.90;;;10.77;nan;100664.75;4992076;28;20640;-64
2022/10/10 02:58:31;;;;;;;5.70;3.43;;;10.40;99.90;;;10.70;nan;100670.50;4974510;28;20645;-65
2022/10/10 03:00:58;;;;;;;3.23;2.93;;;10.30;99.90;;;10.66;nan;100671.66;4979867;28;20688;-64
2022/10/10 03:03:25;;;;;;;4.87;3.13;;;10.30;99.90;;;10.63;nan;100669.25;4993029;28;20619;-65
2022/10/10 03:05:52;;;;;;;4.03;3.40;;;10.30;99.90;;;10.73;nan;100665.88;4992358;28;20621;-66
2022/10/10 03:08:18;;;;;;;6.27;3.90;;;10.30;99.90;;;10.77;nan;100664.75;4992512;28;20655;-65
2022/10/10 03:11:00;;;;;;;5.40;3.37;;;10.30;99.90;;;10.80;nan;100661.91;4975147;28;21042;-65
2022/10/10 03:13:27;;;;;;;5.03;3.67;;;10.40;99.90;;;10.80;nan;100663.66;4974585;28;20684;-66
2022/10/10 03:15:54;;;;;;;5.00;3.40;;;10.40;99.90;;;10.69;nan;100671.47;4992362;28;20645;-65
2022/10/10 03:18:22;;;;;;;4.07;3.43;;;10.30;99.90;;;10.65;nan;100664.75;4974963;28;20622;-65
2022/10/10 03:20:55;;;;;;;3.70;3.40;;;10.30;99.90;;;10.63;nan;100670.09;4974387;28;21114;-66
2022/10/10 03:23:23;;;;;;;2.77;2.57;;;10.30;99.90;;;10.66;nan;100672.50;4967618;28;20626;-65
2022/10/10 03:25:50;;;;;;;3.47;3.10;;;10.20;99.90;;;10.57;nan;100675.75;4974445;28;20614;-64
2022/10/10 03:28:17;;;;;;;3.77;3.33;;;10.20;99.90;;;10.61;nan;100673.75;4991876;28;20646;-64
2022/10/10 03:30:45;;;;;;;6.40;3.50;;;10.20;99.90;;;10.61;nan;100681.59;4991564;28;20607;-64
2022/10/10 03:33:12;;;;;;;4.40;3.53;;;10.20;99.90;;;10.68;nan;100681.06;5011475;23;20690;-62
2022/10/10 03:35:39;;;;;;;4.50;3.20;;;10.20;99.90;;;10.63;nan;100677.94;5011815;28;20639;-63
2022/10/10 03:38:06;;;;;;;4.53;3.17;;;10.20;99.90;;;10.56;nan;100673.28;5012121;28;20613;-63
2022/10/10 03:40:40;;;;;;;5.33;3.70;;;10.20;99.90;;;10.60;nan;100677.31;4993964;28;21232;-63
2022/10/10 03:43:09;;;;;;;4.60;3.50;;;10.20;99.90;;;10.46;nan;100673.06;5012014;28;20656;-63
2022/10/10 03:45:36;;;;;;;5.20;3.63;;;10.10;99.90;;;10.43;nan;100672.47;4997237;28;20976;-63
2022/10/10 03:48:04;;;;;;;3.70;2.83;;;10.10;99.90;;;10.50;nan;100671.91;4991605;28;21190;-63
2022/10/10 03:50:31;;;;;;;3.17;2.90;;;10.10;99.90;;;10.46;nan;100682.66;4974097;28;20621;-64
2022/10/10 03:52:58;;;;;;;3.70;2.87;;;10.10;99.90;;;10.39;nan;100678.84;4992127;28;20676;-63
2022/10/10 03:55:25;;;;;;;2.80;2.60;;;10.10;99.90;;;10.37;nan;100681.53;4992540;28;20613;-63
2022/10/10 03:57:51;;;;;;;4.00;3.60;;;10.00;99.90;;;10.40;nan;100668.28;4973416;28;20643;-63
2022/10/10 04:00:18;;;;;;;4.23;3.50;;;10.10;99.90;;;10.37;nan;100673.72;4981474;28;20645;-63
2022/10/10 04:02:45;;;;;;;3.93;3.17;;;10.00;99.90;;;10.48;nan;100678.19;5002345;28;20673;-63
2022/10/10 04:05:12;;;;;;;7.17;4.00;;;10.10;99.90;;;10.43;nan;100677.69;5008210;28;20676;-63
2022/10/10 04:07:41;;;;;;;6.40;3.93;;;10.10;99.90;;;10.47;nan;100677.38;5011100;28;21172;-63
2022/10/10 04:10:08;;;;;;;2.97;2.40;;;10.00;99.90;;;10.48;nan;100688.59;4990679;28;20693;-64
2022/10/10 04:12:35;;;;;;;3.90;2.80;;;10.10;99.90;;;10.30;nan;100672.50;4991414;28;21270;-64
2022/10/10 04:15:03;;;;;;;3.50;3.20;;;10.00;99.90;;;10.25;nan;100674.59;4991809;28;20645;-63
2022/10/10 04:17:30;;;;;;;4.10;3.70;;;10.00;99.90;;;10.24;nan;100674.69;5004779;28;20639;-64
2022/10/10 04:19:57;;;;;;;5.33;3.60;;;10.00;99.90;;;10.28;nan;100671.78;4993023;28;20997;-63
2022/10/10 04:22:23;;;;;;;5.13;3.63;;;10.00;99.90;;;10.35;nan;100666.97;5010394;28;20703;-64
2022/10/10 04:24:50;;;;;;;4.20;3.40;;;10.00;99.90;;;10.43;nan;100675.06;5011750;28;20628;-63
2022/10/10 04:27:17;;;;;;;4.00;3.43;;;10.00;99.90;;;10.33;nan;100674.06;5004625;28;20637;-63
2022/10/10 04:29:44;;;;;;;5.00;4.00;;;10.00;99.90;;;10.33;nan;100666.25;4992524;28;20642;-60
2022/10/10 04:32:11;;;;;;;5.03;2.73;;;10.00;99.90;;;10.32;nan;100673.22;5008581;28;21231;-64
2022/10/10 04:34:38;;;;;;;3.07;2.67;;;10.00;99.90;;;10.29;nan;100673.44;5009886;28;21176;-63
2022/10/10 04:37:05;;;;;;;4.50;3.77;;;10.00;99.90;;;10.23;nan;100680.84;4992517;28;21213;-63
2022/10/10 04:39:32;;;;;;;3.87;3.50;;;10.00;99.90;;;10.10;nan;100675.63;5003317;28;20659;-65
2022/10/10 04:41:58;;;;;;;6.70;3.67;;;9.90;99.90;;;10.19;nan;100679.38;5010263;28;20677;-63
2022/10/10 04:44:25;;;;;;;7.70;3.87;;;9.90;99.90;;;10.12;nan;100668.56;5008587;28;20616;-63
2022/10/10 04:46:52;;;;;;;6.40;3.77;;;9.80;99.90;;;10.11;nan;100666.91;4989193;28;20690;-64
2022/10/10 04:49:19;;;;;;;5.50;4.03;;;9.80;99.90;;;10.19;nan;100666.34;4999046;28;20641;-63
2022/10/10 04:51:47;;;;;;;3.60;3.30;;;9.80;99.90;;;10.17;nan;100674.28;4989616;28;21272;-64
2022/10/10 04:54:14;;;;;;;6.77;3.90;;;9.80;99.90;;;10.16;nan;100677.81;5004616;28;20648;-65
2022/10/10 04:56:41;;;;;;;3.37;3.07;;;9.80;99.90;;;10.21;nan;100687.94;5003808;28;20658;-64
2022/10/10 04:59:09;;;;;;;6.30;3.90;;;9.80;99.90;;;10.20;nan;100694.91;4997111;28;20651;-63
2022/10/10 05:01:36;;;;;;;4.30;3.80;;;9.80;99.90;;;10.19;nan;100693.28;4990022;28;20681;-64
2022/10/10 05:04:03;;;;;;;6.93;4.73;;;9.80;99.90;;;10.12;nan;100689.41;4990911;28;20645;-62
2022/10/10 05:06:31;;;;;;;6.60;3.90;;;9.80;99.90;;;10.06;nan;100687.19;4990576;28;20637;-64
2022/10/10 05:08:58;;;;;;;7.03;4.60;;;9.80;99.90;;;10.10;nan;100683.44;4990652;28;20620;-65
2022/10/10 05:11:25;;;;;;;4.70;4.00;;;9.80;99.90;;;10.08;nan;100682.72;4994782;28;20648;-64
2022/10/10 05:13:52;;;;;;;4.93;4.03;;;9.80;99.90;;;10.12;nan;100679.81;5010237;28;20631;-63
2022/10/10 05:16:19;;;;;;;4.20;3.80;;;9.80;99.90;;;10.12;nan;100682.44;5000480;28;20685;-64
2022/10/10 05:18:46;;;;;;;4.67;3.60;;;9.80;99.90;;;10.16;nan;100679.63;4990745;28;20905;-62
2022/10/10 05:21:12;;;;;;;3.57;3.27;;;9.80;99.90;;;10.19;nan;100674.19;4989754;28;20641;-63
2022/10/10 05:23:40;;;;;;;5.13;3.70;;;9.80;99.90;;;10.23;nan;100675.63;4991256;28;21205;-64
2022/10/10 05:26:08;;;;;;;5.60;3.93;;;9.80;99.90;;;10.26;nan;100681.47;4992230;28;20629;-63
2022/10/10 05:28:35;;;;;;;3.93;3.60;;;9.80;99.90;;;10.25;nan;100682.41;5007711;28;21006;-64
2022/10/10 05:31:04;;;;;;;4.43;4.03;;;9.90;99.90;;;10.25;nan;100686.78;5003523;28;20633;-63
2022/10/10 05:33:33;;;;;;;5.73;3.70;;;9.90;99.90;;;10.28;nan;100681.38;4994408;28;20665;-64
2022/10/10 05:36:03;;;;;;;3.07;2.80;;;9.90;99.90;;;10.39;nan;100690.09;4992867;28;20629;-63
2022/10/10 05:38:31;;;;;;;5.33;2.87;;;9.90;99.90;;;10.14;nan;100683.16;4992804;28;21196;-63
2022/10/10 05:40:58;;;;;;;4.67;2.83;;;10.00;99.90;;;10.13;nan;100685.88;4993852;28;20645;-63
2022/10/10 05:43:25;;;;;;;3.30;3.00;;;9.90;99.90;;;10.19;nan;100677.63;4994607;28;20676;-63
2022/10/10 05:45:52;;;;;;;3.90;2.27;;;9.90;99.90;;;10.17;nan;100678.66;4991962;28;20646;-64
2022/10/10 05:48:19;;;;;;;2.93;2.60;;;9.90;99.90;;;10.14;nan;100671.88;5004788;28;21004;-63
2022/10/10 05:50:50;;;;;;;3.07;2.77;;;9.90;99.90;;;10.22;nan;100669.59;5012167;28;20988;-63
2022/10/10 05:53:17;;;;;;;4.07;3.07;;;9.90;99.90;;;10.40;nan;100675.28;5013032;28;20659;-64
2022/10/10 05:55:48;;;;;;;8.53;3.00;;;9.90;99.90;;;10.47;nan;100679.97;5003549;28;20642;-62
2022/10/10 05:58:15;;;;;;;8.30;3.70;;;10.00;99.90;;;10.53;nan;100671.72;4990806;28;20703;-63
2022/10/10 06:00:44;;;;;;;9.27;3.40;;;10.10;99.90;;;10.59;nan;100681.72;4981440;28;20649;-64
2022/10/10 06:03:15;;;;;;;4.53;3.63;;;10.10;99.90;;;10.68;nan;100683.66;5013107;28;20676;-64
2022/10/10 06:05:47;;;;;;;12.00;4.10;;;10.20;99.90;;;10.79;nan;100688.13;4998952;28;21152;-64
2022/10/10 06:08:14;;;;;;;5.43;3.53;;;10.30;99.90;;;10.89;nan;100686.50;4994317;28;20628;-64
2022/10/10 06:10:44;;;;;;;4.13;3.73;;;10.30;99.90;;;10.98;nan;100679.78;5000469;28;20635;-63
2022/10/10 06:13:14;;;;;;;6.13;3.93;;;10.40;99.90;;;11.08;nan;100683.38;4993920;28;20645;-64
2022/10/10 06:15:41;;;;;;;4.10;3.60;;;10.50;99.90;;;11.17;nan;100680.09;4996601;28;20638;-64
2022/10/10 06:18:09;;;;;;;4.00;3.63;;;10.60;99.90;;;11.22;nan;100689.25;4993640;28;20625;-66
2022/10/10 06:20:38;;;;;;;4.90;3.80;;;10.60;99.90;;;11.26;nan;100687.28;4993550;28;20618;-65
2022/10/10 06:23:07;;;;;;;5.77;3.33;;;10.70;99.90;;;11.33;nan;100691.09;4966045;28;20684;-64
2022/10/10 06:25:36;;;;;;;3.87;2.87;;;10.70;99.90;;;11.11;nan;100691.84;5004679;28;20998;-63
2022/10/10 06:28:08;;;;;;;7.63;2.70;;;10.80;99.90;;;11.27;nan;100694.97;4989827;28;21042;-64
2022/10/10 06:30:41;;;;;;;7.90;3.17;;;10.80;99.90;;;11.22;nan;100697.09;4983755;28;20894;-64
2022/10/10 06:33:09;;;;;;;6.17;3.33;;;10.80;99.90;;;10.99;nan;100712.78;4992081;28;20670;-66
2022/10/10 06:35:44;;;;;;;3.10;2.83;;;10.70;99.90;;;11.08;nan;100704.28;4992448;28;20627;-64
2022/10/10 06:38:14;;;;;;;5.47;3.87;;;10.70;99.90;;;11.10;nan;100705.00;4980254;28;20641;-64
2022/10/10 06:40:41;;;;;;;4.00;3.50;;;10.70;99.90;;;11.27;nan;100705.44;4994737;28;20629;-63
2022/10/10 06:43:10;;;;;;;8.53;3.10;;;10.80;99.90;;;11.34;nan;100711.88;4999751;28;20679;-64
2022/10/10 06:45:43;;;;;;;2.93;2.73;;;10.80;99.90;;;11.39;nan;100711.53;4987982;28;20673;-64
2022/10/10 06:48:12;;;;;;;2.67;2.47;;;10.90;99.90;;;11.49;nan;100712.53;5001077;28;20696;-62
2022/10/10 06:50:39;;;;;;;3.90;3.23;;;10.90;99.90;;;11.50;nan;100708.94;4973109;28;20645;-64
2022/10/10 06:53:06;;;;;;;5.37;3.20;;;11.00;99.90;;;11.54;nan;100719.06;4996420;28;20669;-64
2022/10/10 06:55:33;;;;;;;4.40;3.23;;;11.00;99.90;;;11.36;nan;100723.03;4980720;28;21003;-64
2022/10/10 06:58:00;;;;;;;5.97;3.40;;;11.10;99.90;;;11.65;nan;100715.63;4990667;28;20667;-64
2022/10/10 07:00:27;;;;;;;5.23;3.10;;;11.10;99.90;;;11.61;nan;100729.88;4992067;28;21170;-64
2022/10/10 07:02:54;;;;;;;3.80;3.10;;;11.10;99.90;;;11.62;nan;100731.56;4992385;28;20670;-63
2022/10/10 07:05:21;;;;;;;6.70;3.10;;;11.10;99.90;;;11.62;nan;100737.63;4992527;28;20633;-64
2022/10/10 07:07:51;;;;;;;4.37;3.50;;;11.10;99.90;;;11.68;nan;100739.81;4992236;28;20642;-63
2022/10/10 07:10:17;;;;;;;3.70;3.37;;;11.20;99.90;;;11.77;nan;100740.91;4991999;28;20612;-63
2022/10/10 07:12:45;;;;;;;3.33;2.93;;;11.20;99.90;;;11.87;nan;100739.25;4992024;28;20717;-63
2022/10/10 07:15:12;;;;;;;5.77;2.87;;;11.30;99.90;;;11.91;nan;100737.25;4983445;28;20671;-64
2022/10/10 07:17:39;;;;;;;6.90;3.10;;;11.30;99.90;;;11.87;nan;100749.72;5003938;28;20636;-62
2022/10/10 07:20:09;;;;;;;3.67;3.30;;;11.40;99.90;;;11.87;nan;100757.56;4990736;28;20621;-64
2022/10/10 07:22:36;;;;;;;4.87;3.23;;;11.40;99.90;;;11.83;nan;100755.28;4975346;28;21021;-64
2022/10/10 07:25:04;;;;;;;2.97;2.67;;;11.40;99.90;;;11.87;nan;100756.72;4958786;28;20627;-64
2022/10/10 07:27:31;;;;;;;5.67;3.17;;;11.40;99.90;;;11.82;nan;100751.84;5000136;28;20649;-65
2022/10/10 07:29:59;;;;;;;7.60;3.13;;;11.40;99.90;;;11.86;nan;100750.66;4990528;28;20625;-64
2022/10/10 07:32:29;;;;;;;4.40;2.73;;;11.40;99.90;;;11.94;nan;100753.56;5011499;28;20683;-63
2022/10/10 07:34:57;;;;;;;3.67;3.07;;;11.40;99.90;;;11.97;nan;100753.31;5009056;28;21184;-64
2022/10/10 07:37:24;;;;;;;5.23;3.30;;;11.50;99.90;;;12.12;nan;100764.38;5011632;28;20625;-63
2022/10/10 07:39:54;;;;;;;6.40;3.80;;;11.60;99.90;;;12.20;nan;100760.22;4983911;28;21233;-63
2022/10/10 07:42:21;;;;;;;3.60;3.07;;;11.70;99.90;;;12.39;nan;100757.84;4974397;28;20658;-63
2022/10/10 07:44:48;;;;;;;4.67;3.37;;;11.80;99.90;;;12.99;nan;100762.69;4981218;28;20638;-63
2022/10/10 07:47:17;;;;;;;4.60;2.70;;;12.00;99.90;;;14.30;nan;100766.66;5002231;28;20638;-63
2022/10/10 07:49:44;;;;;;;5.67;3.30;;;12.70;99.90;;;15.72;nan;100767.13;5010421;28;20979;-62
2022/10/10 07:52:12;;;;;;;5.70;4.13;;;13.70;99.90;;;18.53;nan;100771.19;5000440;28;20723;-64
2022/10/10 07:54:39;;;;;;;7.77;4.77;;;15.10;99.90;;;22.41;nan;100775.25;5006008;28;21197;-63
2022/10/10 07:57:06;;;;;;;6.50;4.17;;;17.50;99.90;;;25.59;nan;100780.94;5011312;28;20636;-64
2022/10/10 07:59:32;;;;;;;5.80;4.90;;;19.90;99.90;;;28.14;nan;100774.63;4992581;28;20976;-63
2022/10/10 08:01:59;;;;;;;8.53;4.93;;;22.20;99.90;;;29.87;nan;100780.91;4982718;28;20666;-63
2022/10/10 08:04:26;;;;;;;9.97;4.83;;;24.10;95.50;;;30.99;nan;100776.91;4990666;28;20607;-64
2022/10/10 08:06:54;;;;;;;6.37;4.33;;;25.50;91.00;;;30.08;nan;100776.81;4997732;28;21015;-63
2022/10/10 08:09:21;;;;;;;6.77;4.93;;;26.00;85.60;;;29.14;nan;100774.94;4976726;28;20634;-64
2022/10/10 08:11:48;;;;;;;6.97;4.30;;;26.10;80.80;;;27.87;nan;100774.03;5010754;28;20664;-64
2022/10/10 08:14:15;;;;;;;6.47;4.03;;;25.50;81.30;;;25.18;nan;100765.03;4997548;28;20630;-63
2022/10/10 08:16:42;;;;;;;7.10;4.30;;;24.20;82.10;;;23.30;nan;100766.19;4972944;28;21212;-63
2022/10/10 08:19:10;;;;;;;4.73;3.67;;;22.80;86.70;;;23.08;nan;100768.00;5008246;28;20639;-63
2022/10/10 08:21:37;;;;;;;16.73;4.20;;;21.90;91.00;;;22.81;nan;100766.84;5008416;28;20662;-64
2022/10/10 08:24:04;;;;;;;4.60;3.97;;;21.40;92.30;;;23.25;nan;100765.91;5001035;28;21039;-63
2022/10/10 08:26:31;;;;;;;10.10;5.13;;;21.40;93.40;;;24.80;nan;100769.19;5010399;28;20622;-64
2022/10/10 08:28:58;;;;;;;4.47;4.07;;;22.30;91.90;;;26.88;nan;100772.97;4991624;28;21035;-63
2022/10/10 08:31:29;;;;;;;5.97;4.10;;;23.40;90.90;;;27.09;nan;100771.88;4990144;28;20638;-64
2022/10/10 08:33:56;;;;;;;5.30;3.80;;;24.40;87.50;;;29.23;nan;100771.94;4991152;28;20676;-64
2022/10/10 08:36:23;;;;;;;10.20;4.50;;;25.40;84.60;;;30.76;nan;100768.06;4991351;28;20622;-64
2022/10/10 08:38:55;;;;;;;6.77;4.70;;;26.40;80.60;;;31.51;nan;100769.56;4991464;28;20619;-63
2022/10/10 08:42:05;;;;;;;6.00;4.13;;;27.30;76.60;;;28.89;nan;100770.72;4975113;28;20693;-63
2022/10/10 08:44:48;;;;;;;5.87;4.30;;;26.70;74.70;;;26.78;nan;100753.88;4959367;28;20623;-63
2022/10/10 08:47:42;;;;;;;6.50;4.00;;;25.40;77.40;;;25.43;nan;100760.78;4962577;28;20634;-63
2022/10/10 08:50:24;;;;;;;5.30;3.83;;;24.30;80.50;;;23.25;nan;100763.25;5010247;28;20629;-64
2022/10/10 08:52:57;;;;;;;4.97;4.20;;;23.00;83.80;;;22.43;nan;100754.63;4980610;28;21245;-65
2022/10/10 08:55:42;;;;;;;4.93;4.23;;;21.80;89.40;;;21.82;nan;100746.94;4998794;28;20635;-63
2022/10/10 08:58:36;;;;;;;4.70;4.10;;;21.00;91.10;;;22.32;nan;100760.41;4972713;28;20626;-64
2022/10/10 09:01:33;;;;;;;6.33;4.27;;;21.10;92.50;;;22.78;nan;100753.91;4955159;28;20975;-62
2022/10/10 09:04:02;;;;;;;10.40;4.33;;;21.00;93.70;;;24.09;nan;100752.56;4957708;28;20673;-64
2022/10/10 09:07:13;;;;;;;4.70;4.20;;;21.60;93.30;;;26.34;nan;100745.78;4977501;28;20696;-63
2022/10/10 09:10:14;;;;;;;7.30;4.73;;;22.60;92.10;;;32.62;nan;100755.06;4994644;28;20634;-63
2022/10/10 09:13:12;;;;;;;6.13;4.73;;;25.50;87.80;;;36.26;nan;100760.22;4994568;28;20654;-63
2022/10/10 09:15:51;;;;;;;7.43;4.13;;;28.40;78.30;;;38.30;nan;100756.66;4971395;28;20631;-64
2022/10/10 09:18:48;;;;;;;4.37;3.97;;;30.50;70.60;;;39.62;nan;100751.00;4994690;28;20640;-64
2022/10/10 09:21:18;;;;;;;7.83;4.40;;;32.30;64.10;;;40.28;nan;100754.97;4995584;28;20625;-64
2022/10/10 09:24:08;;;;;;;4.70;4.00;;;33.40;60.10;;;41.72;nan;100742.13;4994598;28;20678;-64
2022/10/10 09:26:42;;;;;;;4.17;3.80;;;34.30;57.50;;;42.24;nan;100743.16;4993509;28;20630;-64
2022/10/10 09:29:40;;;;;;;4.43;4.13;;;35.00;55.10;;;42.79;nan;100736.03;4991773;28;20664;-65
2022/10/10 09:32:21;;;;;;;5.20;4.80;;;35.60;53.40;;;44.30;nan;100743.88;5005952;28;20731;-64
2022/10/10 09:35:16;;;;;;;6.93;4.40;;;36.50;52.50;;;45.36;nan;100741.28;4993261;28;20626;-66
2022/10/10 09:37:44;;;;;;;4.47;4.07;;;37.40;50.00;;;45.59;nan;100736.22;4994089;28;20630;-63
2022/10/10 09:40:37;;;;;;;4.43;3.93;;;38.00;48.60;;;46.10;nan;100743.06;4977273;28;20698;-64
2022/10/10 09:43:16;;;;;;;4.87;4.47;;;38.50;47.50;;;46.30;nan;100736.66;4973823;28;21264;-66
2022/10/10 09:45:52;;;;;;;8.73;4.03;;;38.70;46.80;;;46.96;nan;100734.34;4957650;28;20621;-64
2022/10/10 09:48:27;;;;;;;4.57;4.27;;;39.20;46.10;;;47.65;nan;100733.88;4979748;28;20747;-64
2022/10/10 09:50:54;;;;;;;4.00;3.77;;;39.50;45.50;;;47.67;nan;100736.28;4966169;28;20638;-65
2022/10/10 09:53:22;;;;;;;3.83;3.60;;;39.80;45.70;;;47.20;nan;100733.41;4975724;28;20672;-64
2022/10/10 09:55:52;;;;;;;3.93;3.53;;;39.80;45.10;;;46.96;nan;100730.75;4995457;28;20634;-64
2022/10/10 09:58:40;;;;;;;4.10;3.80;;;39.70;44.50;;;47.14;nan;100716.31;4988883;28;20646;-64
2022/10/10 10:01:27;;;;;;;4.13;3.77;;;39.90;44.30;;;44.98;nan;100715.09;4977077;28;21179;-64
2022/10/10 10:04:18;;;;;;;4.50;4.13;;;39.40;43.90;;;45.29;nan;100721.75;4977539;28;20662;-63
2022/10/10 10:07:24;;;;;;;4.00;3.70;;;39.30;44.20;;;46.28;nan;100716.81;4994170;28;21012;-63
2022/10/10 10:10:29;;;;;;;4.50;4.20;;;39.60;44.30;;;45.81;nan;100712.94;4993245;28;20642;-67
2022/10/10 10:12:56;;;;;;;4.33;4.10;;;39.50;43.80;;;45.36;nan;100710.97;4966415;28;21042;-63
2022/10/10 10:15:27;;;;;;;5.63;4.20;;;39.30;44.20;;;45.86;nan;100709.94;4981781;28;20641;-65
2022/10/10 10:18:20;;;;;;;4.20;3.90;;;39.20;44.20;;;46.57;nan;100713.03;4977176;28;20618;-63
2022/10/10 10:20:50;;;;;;;4.10;3.80;;;39.40;44.20;;;45.77;nan;100703.75;4977177;28;20606;-65
2022/10/10 10:23:32;;;;;;;5.67;5.17;;;39.40;44.10;;;42.34;nan;100697.06;4993879;28;20745;-62
2022/10/10 10:26:13;;;;;;;4.53;4.13;;;38.20;44.80;;;41.82;nan;100702.66;4993536;28;20629;-64
2022/10/10 10:28:41;;;;;;;4.10;3.60;;;36.90;46.20;;;42.15;nan;100704.75;4993039;28;20644;-66
2022/10/10 10:32:08;;;;;;;4.77;4.37;;;36.40;46.80;;;39.48;nan;100699.88;4998197;28;20723;-65
2022/10/10 10:34:54;;;;;;;5.40;4.23;;;35.40;47.80;;;35.18;nan;100701.09;5000112;28;20971;-65
2022/10/10 10:38:13;;;;;;;3.80;3.50;;;32.90;50.70;;;31.84;nan;100702.09;4980170;28;20613;-64
2022/10/10 10:41:07;;;;;;;4.60;4.03;;;30.50;53.70;;;;;;4983022;28;20713;-65
2022/10/10 10:43:52;;;;;;;9.20;5.03;;;28.60;56.90;;;26.91;nan;100697.59;4975607;28;20679;-65
2022/10/10 10:46:19;;;;;;;8.47;4.03;;;27.10;60.20;;;25.77;nan;100695.66;5001149;28;20638;-64
2022/10/10 10:49:16;;;;;;;6.80;3.80;;;25.70;63.20;;;25.13;nan;100692.72;5012061;28;20622;-66
2022/10/10 10:52:08;;;;;;;9.50;3.70;;;24.90;65.70;;;24.43;nan;100685.91;4990272;28;20669;-64
2022/10/10 10:55:10;;;;;;;3.30;3.07;;;24.10;68.70;;;23.71;nan;100689.94;4994887;28;20688;-64